createdAt,value
2017-01-18T00:00:19.229Z,1039.58
2017-01-18T00:01:19.979Z,1039.55
2017-01-18T00:02:20.734Z,1039.55
2017-01-18T00:03:21.470Z,1039.56
2017-01-18T00:04:22.222Z,1039.58
2017-01-18T00:05:22.991Z,1039.53
2017-01-18T00:06:23.729Z,1039.55
2017-01-18T00:07:24.470Z,1039.56
2017-01-18T00:08:25.210Z,1039.52
2017-01-18T00:09:25.982Z,1039.53
2017-01-18T00:10:26.733Z,1039.54
2017-01-18T00:11:27.485Z,1039.51
2017-01-18T00:12:28.219Z,1039.5
2017-01-18T00:13:28.983Z,1039.46
2017-01-18T00:14:29.730Z,1039.45
2017-01-18T00:15:30.481Z,1039.42
2017-01-18T00:16:31.265Z,1039.38
2017-01-18T00:17:32.032Z,1039.41
2017-01-18T00:18:32.776Z,1039.42
2017-01-18T00:19:33.534Z,1039.42
2017-01-18T00:20:34.279Z,1039.44
2017-01-18T00:21:35.033Z,1039.5
2017-01-18T00:22:35.799Z,1039.51
2017-01-18T00:23:36.548Z,1039.51
2017-01-18T00:24:37.294Z,1039.51
2017-01-18T00:25:38.102Z,1039.6
2017-01-18T00:26:38.855Z,1039.56
2017-01-18T00:27:39.613Z,1039.55
2017-01-18T00:28:40.361Z,1039.5
2017-01-18T00:29:41.115Z,1039.55
2017-01-18T00:30:41.858Z,1039.62
2017-01-18T00:31:42.603Z,1039.58
2017-01-18T00:32:43.344Z,1039.63
2017-01-18T00:33:44.087Z,1039.65
2017-01-18T00:34:44.827Z,1039.64
2017-01-18T00:35:45.573Z,1039.63
2017-01-18T00:36:46.334Z,1039.63
2017-01-18T00:37:47.073Z,1039.63
2017-01-18T00:38:47.836Z,1039.66
2017-01-18T00:39:48.591Z,1039.66
2017-01-18T00:40:49.351Z,1039.65
2017-01-18T00:41:50.095Z,1039.63
2017-01-18T00:42:50.854Z,1039.69
2017-01-18T00:43:51.601Z,1039.69
2017-01-18T00:44:52.336Z,1039.69
2017-01-18T00:45:53.086Z,1039.7
2017-01-18T00:46:53.832Z,1039.68
2017-01-18T00:47:54.591Z,1039.69
2017-01-18T00:48:55.338Z,1039.7
2017-01-18T00:49:56.080Z,1039.71
2017-01-18T00:50:56.843Z,1039.66
2017-01-18T00:51:57.607Z,1039.69
2017-01-18T00:52:58.390Z,1039.72
2017-01-18T00:53:59.136Z,1039.64
2017-01-18T00:54:59.888Z,1039.72
2017-01-18T00:56:00.647Z,1039.71
2017-01-18T00:57:01.391Z,1039.7
2017-01-18T00:58:02.146Z,1039.73
2017-01-18T00:59:02.887Z,1039.73
2017-01-18T01:00:03.627Z,1039.75
2017-01-18T01:01:04.412Z,1039.74
2017-01-18T01:02:05.157Z,1039.7
2017-01-18T01:03:05.906Z,1039.72
2017-01-18T01:04:06.653Z,1039.69
2017-01-18T01:05:07.416Z,1039.69
2017-01-18T01:06:08.160Z,1039.67
2017-01-18T01:07:08.905Z,1039.63
2017-01-18T01:08:09.696Z,1039.67
2017-01-18T01:09:10.467Z,1039.63
2017-01-18T01:10:11.225Z,1039.66
2017-01-18T01:11:11.966Z,1039.66
2017-01-18T01:12:12.707Z,1039.69
2017-01-18T01:13:13.480Z,1039.68
2017-01-18T01:14:14.245Z,1039.7
2017-01-18T01:15:14.985Z,1039.69
2017-01-18T01:16:15.727Z,1039.72
2017-01-18T01:17:16.476Z,1039.69
2017-01-18T01:18:17.245Z,1039.76
2017-01-18T01:19:17.981Z,1039.76
2017-01-18T01:20:18.710Z,1039.82
2017-01-18T01:21:19.456Z,1039.83
2017-01-18T01:22:20.202Z,1039.89
2017-01-18T01:23:20.955Z,1039.89
2017-01-18T01:24:21.704Z,1039.93
2017-01-18T01:25:22.488Z,1039.95
2017-01-18T01:26:23.240Z,1039.98
2017-01-18T01:27:23.998Z,1040
2017-01-18T01:28:24.753Z,1039.97
2017-01-18T01:29:25.490Z,1039.94
2017-01-18T01:30:26.237Z,1039.94
2017-01-18T01:31:26.994Z,1039.91
2017-01-18T01:32:27.742Z,1039.89
2017-01-18T01:33:28.482Z,1039.88
2017-01-18T01:34:29.244Z,1039.86
2017-01-18T01:35:29.986Z,1039.78
2017-01-18T01:36:30.742Z,1039.76
2017-01-18T01:37:31.486Z,1039.75
2017-01-18T01:38:32.240Z,1039.79
2017-01-18T01:39:32.989Z,1039.8
2017-01-18T01:40:33.796Z,1039.82
2017-01-18T01:41:34.543Z,1039.83
2017-01-18T01:42:35.286Z,1039.86
2017-01-18T01:43:36.033Z,1039.85
2017-01-18T01:44:36.778Z,1039.87
2017-01-18T01:45:37.541Z,1039.82
2017-01-18T01:46:38.345Z,1039.8
2017-01-18T01:47:39.086Z,1039.78
2017-01-18T01:48:39.839Z,1039.75
2017-01-18T01:49:40.607Z,1039.76
2017-01-18T01:50:41.347Z,1039.8
2017-01-18T01:51:42.173Z,1039.81
2017-01-18T01:52:42.939Z,1039.8
2017-01-18T01:53:43.692Z,1039.75
2017-01-18T01:54:44.441Z,1039.73
2017-01-18T01:55:45.214Z,1039.71
2017-01-18T01:56:45.960Z,1039.7
2017-01-18T01:57:46.744Z,1039.67
2017-01-18T01:58:47.495Z,1039.71
2017-01-18T01:59:48.258Z,1039.74
2017-01-18T02:00:49.034Z,1039.7
2017-01-18T02:01:49.791Z,1039.71
2017-01-18T02:02:50.594Z,1039.7
2017-01-18T02:03:51.338Z,1039.74
2017-01-18T02:04:52.075Z,1039.75
2017-01-18T02:05:52.829Z,1039.75
2017-01-18T02:06:53.582Z,1039.72
2017-01-18T02:07:54.325Z,1039.71
2017-01-18T02:08:55.073Z,1039.68
2017-01-18T02:09:55.822Z,1039.69
2017-01-18T02:10:56.573Z,1039.63
2017-01-18T02:11:57.333Z,1039.66
2017-01-18T02:12:58.089Z,1039.69
2017-01-18T02:13:58.850Z,1039.74
2017-01-18T02:14:59.600Z,1039.68
2017-01-18T02:16:00.363Z,1039.71
2017-01-18T02:17:01.177Z,1039.66
2017-01-18T02:18:01.935Z,1039.63
2017-01-18T02:19:02.682Z,1039.63
2017-01-18T02:20:03.469Z,1039.62
2017-01-18T02:21:04.245Z,1039.62
2017-01-18T02:22:05.028Z,1039.59
2017-01-18T02:23:05.793Z,1039.63
2017-01-18T02:24:06.555Z,1039.62
2017-01-18T02:25:07.306Z,1039.62
2017-01-18T02:26:08.059Z,1039.63
2017-01-18T02:27:08.848Z,1039.61
2017-01-18T02:28:09.582Z,1039.63
2017-01-18T02:29:10.376Z,1039.6
2017-01-18T02:30:11.131Z,1039.56
2017-01-18T02:31:11.885Z,1039.56
2017-01-18T02:32:12.643Z,1039.56
2017-01-18T02:33:13.431Z,1039.57
2017-01-18T02:34:14.193Z,1039.57
2017-01-18T02:35:14.944Z,1039.6
2017-01-18T02:36:15.709Z,1039.61
2017-01-18T02:37:16.443Z,1039.58
2017-01-18T02:38:17.195Z,1039.59
2017-01-18T02:39:17.944Z,1039.62
2017-01-18T02:40:18.691Z,1039.64
2017-01-18T02:41:19.436Z,1039.61
2017-01-18T02:42:20.229Z,1039.55
2017-01-18T02:43:20.996Z,1039.61
2017-01-18T02:44:21.772Z,1039.62
2017-01-18T02:45:22.522Z,1039.58
2017-01-18T02:46:23.297Z,1039.58
2017-01-18T02:47:24.055Z,1039.6
2017-01-18T02:48:24.815Z,1039.58
2017-01-18T02:49:25.565Z,1039.6
2017-01-18T02:50:26.304Z,1039.6
2017-01-18T02:51:27.064Z,1039.55
2017-01-18T02:52:27.800Z,1039.49
2017-01-18T02:53:28.540Z,1039.53
2017-01-18T02:54:29.304Z,1039.52
2017-01-18T02:55:30.059Z,1039.45
2017-01-18T02:56:30.804Z,1039.47
2017-01-18T02:57:31.572Z,1039.39
2017-01-18T02:58:32.320Z,1039.38
2017-01-18T02:59:33.071Z,1039.37
2017-01-18T03:00:33.830Z,1039.39
2017-01-18T03:01:34.569Z,1039.43
2017-01-18T03:02:35.344Z,1039.43
2017-01-18T03:03:36.092Z,1039.43
2017-01-18T03:04:36.850Z,1039.46
2017-01-18T03:05:37.602Z,1039.5
2017-01-18T03:06:38.330Z,1039.52
2017-01-18T03:07:39.090Z,1039.49
2017-01-18T03:08:39.846Z,1039.44
2017-01-18T03:09:40.589Z,1039.42
2017-01-18T03:10:41.351Z,1039.45
2017-01-18T03:11:42.099Z,1039.43
2017-01-18T03:12:42.850Z,1039.44
2017-01-18T03:13:43.599Z,1039.52
2017-01-18T03:14:44.337Z,1039.53
2017-01-18T03:15:45.081Z,1039.58
2017-01-18T03:16:45.831Z,1039.62
2017-01-18T03:17:46.587Z,1039.67
2017-01-18T03:18:47.345Z,1039.69
2017-01-18T03:19:48.103Z,1039.71
2017-01-18T03:20:48.850Z,1039.67
2017-01-18T03:21:49.619Z,1039.71
2017-01-18T03:22:50.376Z,1039.67
2017-01-18T03:23:51.129Z,1039.67
2017-01-18T03:24:51.905Z,1039.65
2017-01-18T03:25:52.642Z,1039.63
2017-01-18T03:26:53.389Z,1039.58
2017-01-18T03:27:54.145Z,1039.61
2017-01-18T03:28:54.891Z,1039.61
2017-01-18T03:29:55.666Z,1039.56
2017-01-18T03:30:56.405Z,1039.53
2017-01-18T03:31:57.161Z,1039.48
2017-01-18T03:32:57.903Z,1039.45
2017-01-18T03:33:58.657Z,1039.42
2017-01-18T03:34:59.408Z,1039.43
2017-01-18T03:36:00.173Z,1039.39
2017-01-18T03:37:00.901Z,1039.39
2017-01-18T03:38:01.656Z,1039.39
2017-01-18T03:39:02.417Z,1039.37
2017-01-18T03:40:03.167Z,1039.41
2017-01-18T03:41:03.899Z,1039.41
2017-01-18T03:42:04.647Z,1039.45
2017-01-18T03:43:05.407Z,1039.46
2017-01-18T03:44:06.152Z,1039.46
2017-01-18T03:45:06.919Z,1039.46
2017-01-18T03:46:07.678Z,1039.45
2017-01-18T03:47:08.462Z,1039.46
2017-01-18T03:48:09.204Z,1039.45
2017-01-18T03:49:09.941Z,1039.42
2017-01-18T03:50:10.734Z,1039.36
2017-01-18T03:51:11.491Z,1039.31
2017-01-18T03:52:12.222Z,1039.29
2017-01-18T03:53:12.987Z,1039.26
2017-01-18T03:54:13.730Z,1039.3
2017-01-18T03:55:14.513Z,1039.33
2017-01-18T03:56:15.279Z,1039.3
2017-01-18T03:57:16.028Z,1039.34
2017-01-18T03:58:16.793Z,1039.31
2017-01-18T03:59:17.550Z,1039.27
2017-01-18T04:00:18.317Z,1039.28
2017-01-18T04:01:19.071Z,1039.34
2017-01-18T04:02:19.837Z,1039.32
2017-01-18T04:03:20.592Z,1039.27
2017-01-18T04:04:21.351Z,1039.25
2017-01-18T04:08:36.780Z,1039.26
2017-01-18T04:09:37.540Z,1039.3
2017-01-18T04:10:38.312Z,1039.31
2017-01-18T04:11:39.045Z,1039.32
2017-01-18T04:12:39.794Z,1039.27
2017-01-18T04:13:40.546Z,1039.27
2017-01-18T04:14:41.309Z,1039.25
2017-01-18T04:15:42.062Z,1039.28
2017-01-18T04:16:42.814Z,1039.23
2017-01-18T04:17:43.586Z,1039.29
2017-01-18T04:18:44.377Z,1039.29
2017-01-18T04:19:45.134Z,1039.32
2017-01-18T04:20:45.892Z,1039.29
2017-01-18T04:21:46.647Z,1039.29
2017-01-18T04:22:47.407Z,1039.26
2017-01-18T04:23:48.186Z,1039.3
2017-01-18T04:24:48.935Z,1039.28
2017-01-18T04:25:49.683Z,1039.27
2017-01-18T04:26:50.432Z,1039.24
2017-01-18T04:27:51.174Z,1039.23
2017-01-18T04:28:51.925Z,1039.2
2017-01-18T04:29:52.684Z,1039.24
2017-01-18T04:30:53.422Z,1039.26
2017-01-18T04:31:54.180Z,1039.22
2017-01-18T04:32:54.944Z,1039.2
2017-01-18T04:33:55.707Z,1039.2
2017-01-18T04:34:56.529Z,1039.23
2017-01-18T04:35:57.300Z,1039.22
2017-01-18T04:36:58.052Z,1039.2
2017-01-18T04:37:58.798Z,1039.25
2017-01-18T04:38:59.556Z,1039.23
2017-01-18T04:40:00.308Z,1039.21
2017-01-18T04:41:01.047Z,1039.18
2017-01-18T04:42:01.837Z,1039.17
2017-01-18T04:43:02.594Z,1039.18
2017-01-18T04:44:03.346Z,1039.16
2017-01-18T04:45:04.110Z,1039.19
2017-01-18T04:46:04.868Z,1039.18
2017-01-18T04:47:05.622Z,1039.22
2017-01-18T04:48:06.364Z,1039.18
2017-01-18T04:49:07.113Z,1039.22
2017-01-18T04:50:07.884Z,1039.19
2017-01-18T04:51:08.668Z,1039.23
2017-01-18T04:52:09.418Z,1039.21
2017-01-18T04:53:10.159Z,1039.22
2017-01-18T04:54:10.914Z,1039.21
2017-01-18T04:55:11.666Z,1039.22
2017-01-18T04:56:12.424Z,1039.19
2017-01-18T04:57:13.168Z,1039.18
2017-01-18T04:58:13.908Z,1039.2
2017-01-18T04:59:14.671Z,1039.21
2017-01-18T05:00:15.417Z,1039.19
2017-01-18T05:01:16.169Z,1039.21
2017-01-18T05:02:16.941Z,1039.23
2017-01-18T05:03:17.695Z,1039.25
2017-01-18T05:04:18.471Z,1039.22
2017-01-18T05:05:19.219Z,1039.24
2017-01-18T05:06:19.978Z,1039.23
2017-01-18T05:07:20.754Z,1039.18
2017-01-18T05:08:21.538Z,1039.19
2017-01-18T05:09:22.291Z,1039.15
2017-01-18T05:10:23.037Z,1039.14
2017-01-18T05:11:23.795Z,1039.12
2017-01-18T05:12:24.552Z,1039.14
2017-01-18T05:13:25.308Z,1039.11
2017-01-18T05:14:26.060Z,1039.13
2017-01-18T05:15:26.820Z,1039.09
2017-01-18T05:16:27.561Z,1039.08
2017-01-18T05:17:28.311Z,1039.09
2017-01-18T05:18:29.078Z,1039.03
2017-01-18T05:19:29.821Z,1039.05
2017-01-18T05:20:30.582Z,1039.06
2017-01-18T05:21:31.338Z,1039.06
2017-01-18T05:22:32.090Z,1039.08
2017-01-18T05:23:32.842Z,1039.13
2017-01-18T05:24:33.612Z,1039.13
2017-01-18T05:25:34.383Z,1039.15
2017-01-18T05:26:35.143Z,1039.18
2017-01-18T05:27:35.891Z,1039.16
2017-01-18T05:28:36.628Z,1039.2
2017-01-18T05:29:37.378Z,1039.17
2017-01-18T05:30:38.190Z,1039.2
2017-01-18T05:31:38.935Z,1039.23
2017-01-18T05:32:39.683Z,1039.21
2017-01-18T05:33:40.446Z,1039.18
2017-01-18T05:34:41.215Z,1039.21
2017-01-18T05:35:41.971Z,1039.23
2017-01-18T05:36:42.716Z,1039.2
2017-01-18T05:37:43.458Z,1039.22
2017-01-18T05:38:44.207Z,1039.22
2017-01-18T05:39:44.949Z,1039.22
2017-01-18T05:40:45.710Z,1039.24
2017-01-18T05:41:46.460Z,1039.2
2017-01-18T05:42:47.229Z,1039.21
2017-01-18T05:43:47.996Z,1039.2
2017-01-18T05:44:48.761Z,1039.24
2017-01-18T05:45:49.518Z,1039.28
2017-01-18T05:46:50.286Z,1039.26
2017-01-18T05:47:51.030Z,1039.25
2017-01-18T05:48:51.802Z,1039.29
2017-01-18T05:49:52.561Z,1039.28
2017-01-18T05:50:53.315Z,1039.29
2017-01-18T05:51:54.064Z,1039.25
2017-01-18T05:52:54.869Z,1039.29
2017-01-18T05:53:55.617Z,1039.3
2017-01-18T05:54:56.385Z,1039.3
2017-01-18T05:55:57.130Z,1039.31
2017-01-18T05:56:57.888Z,1039.32
2017-01-18T05:57:58.657Z,1039.35
2017-01-18T05:58:59.438Z,1039.37
2017-01-18T06:00:00.198Z,1039.36
2017-01-18T06:01:00.954Z,1039.39
2017-01-18T06:02:01.738Z,1039.37
2017-01-18T06:03:02.526Z,1039.36
2017-01-18T06:04:03.279Z,1039.34
2017-01-18T06:05:04.071Z,1039.24
2017-01-18T06:06:04.797Z,1039.19
2017-01-18T06:07:05.565Z,1039.17
2017-01-18T06:08:06.325Z,1039.15
2017-01-18T06:09:07.095Z,1039.09
2017-01-18T06:10:07.840Z,1039.1
2017-01-18T06:11:08.623Z,1039.1
2017-01-18T06:12:09.391Z,1039.11
2017-01-18T06:13:10.154Z,1039.12
2017-01-18T06:14:10.916Z,1039.16
2017-01-18T06:15:11.687Z,1039.12
2017-01-18T06:16:12.459Z,1039.18
2017-01-18T06:17:13.243Z,1039.19
2017-01-18T06:19:54.472Z,1039.26
2017-01-18T06:20:55.237Z,1039.25
2017-01-18T06:21:55.987Z,1039.32
2017-01-18T06:22:56.742Z,1039.32
2017-01-18T06:23:57.490Z,1039.29
2017-01-18T06:24:58.239Z,1039.25
2017-01-18T06:25:58.994Z,1039.29
2017-01-18T06:26:59.752Z,1039.29
2017-01-18T06:28:00.521Z,1039.31
2017-01-18T06:29:01.292Z,1039.4
2017-01-18T06:30:02.036Z,1039.38
2017-01-18T06:31:02.796Z,1039.4
2017-01-18T06:32:03.544Z,1039.4
2017-01-18T06:33:04.296Z,1039.38
2017-01-18T06:34:05.039Z,1039.38
2017-01-18T06:35:05.810Z,1039.34
2017-01-18T06:36:06.596Z,1039.32
2017-01-18T06:37:07.399Z,1039.36
2017-01-18T06:38:08.143Z,1039.34
2017-01-18T06:39:08.903Z,1039.39
2017-01-18T06:40:09.668Z,1039.44
2017-01-18T06:41:10.405Z,1039.44
2017-01-18T06:42:11.162Z,1039.5
2017-01-18T06:43:11.928Z,1039.49
2017-01-18T06:44:12.720Z,1039.55
2017-01-18T06:45:13.473Z,1039.5
2017-01-18T06:46:14.227Z,1039.49
2017-01-18T06:47:14.977Z,1039.53
2017-01-18T06:48:15.717Z,1039.52
2017-01-18T06:49:16.495Z,1039.53
2017-01-18T06:50:17.237Z,1039.54
2017-01-18T06:51:17.972Z,1039.56
2017-01-18T06:52:18.726Z,1039.55
2017-01-18T06:53:19.523Z,1039.54
2017-01-18T06:54:20.281Z,1039.57
2017-01-18T06:55:21.039Z,1039.6
2017-01-18T06:56:21.796Z,1039.67
2017-01-18T06:57:22.535Z,1039.71
2017-01-18T06:58:23.292Z,1039.71
2017-01-18T06:59:24.032Z,1039.71
2017-01-18T07:00:24.813Z,1039.7
2017-01-18T07:01:25.544Z,1039.7
2017-01-18T07:02:26.318Z,1039.67
2017-01-18T07:03:27.087Z,1039.72
2017-01-18T07:04:27.840Z,1039.71
2017-01-18T07:05:28.622Z,1039.66
2017-01-18T07:06:29.406Z,1039.66
2017-01-18T07:07:30.217Z,1039.65
2017-01-18T07:08:31.024Z,1039.61
2017-01-18T07:09:31.779Z,1039.63
2017-01-18T07:10:32.536Z,1039.61
2017-01-18T07:11:33.289Z,1039.62
2017-01-18T07:12:35.874Z,1039.62
2017-01-18T07:13:36.664Z,1039.63
2017-01-18T07:14:37.446Z,1039.64
2017-01-18T07:15:38.168Z,1039.65
2017-01-18T07:16:38.929Z,1039.67
2017-01-18T07:17:39.703Z,1039.68
2017-01-18T07:18:40.439Z,1039.65
2017-01-18T07:19:41.209Z,1039.68
2017-01-18T07:20:41.963Z,1039.71
2017-01-18T07:21:42.717Z,1039.77
2017-01-18T07:22:43.463Z,1039.78
2017-01-18T07:23:44.202Z,1039.78
2017-01-18T07:24:45.017Z,1039.8
2017-01-18T07:25:45.777Z,1039.77
2017-01-18T07:26:46.501Z,1039.82
2017-01-18T07:27:47.259Z,1039.79
2017-01-18T07:28:47.996Z,1039.74
2017-01-18T07:29:48.741Z,1039.79
2017-01-18T07:30:49.467Z,1039.79
2017-01-18T07:31:50.212Z,1039.79
2017-01-18T07:32:50.939Z,1039.8
2017-01-18T07:33:51.676Z,1039.77
2017-01-18T07:34:52.449Z,1039.8
2017-01-18T07:35:53.193Z,1039.79
2017-01-18T07:36:53.951Z,1039.83
2017-01-18T07:37:54.715Z,1039.86
2017-01-18T07:38:55.445Z,1039.84
2017-01-18T07:39:56.166Z,1039.87
2017-01-18T07:40:56.902Z,1039.88
2017-01-18T07:41:57.656Z,1039.86
2017-01-18T07:42:58.391Z,1039.89
2017-01-18T07:43:59.124Z,1039.83
2017-01-18T07:44:59.841Z,1039.86
2017-01-18T07:46:00.566Z,1039.83
2017-01-18T07:47:01.305Z,1039.84
2017-01-18T07:48:02.059Z,1039.84
2017-01-18T07:49:02.796Z,1039.84
2017-01-18T07:50:03.577Z,1039.81
2017-01-18T07:51:04.385Z,1039.82
2017-01-18T07:52:05.095Z,1039.82
2017-01-18T07:53:05.864Z,1039.82
2017-01-18T07:54:06.604Z,1039.84
2017-01-18T07:55:07.373Z,1039.87
2017-01-18T07:56:08.125Z,1039.89
2017-01-18T07:57:08.868Z,1039.89
2017-01-18T07:58:09.593Z,1039.91
2017-01-18T07:59:10.346Z,1039.9
2017-01-18T08:00:11.091Z,1039.86
2017-01-18T08:01:11.852Z,1039.87
2017-01-18T08:02:12.601Z,1039.94
2017-01-18T08:03:13.382Z,1039.91
2017-01-18T08:04:14.137Z,1039.88
2017-01-18T08:05:14.890Z,1039.85
2017-01-18T08:06:15.641Z,1039.85
2017-01-18T08:07:16.379Z,1039.84
2017-01-18T08:08:17.116Z,1039.87
2017-01-18T08:09:17.863Z,1039.86
2017-01-18T08:10:18.596Z,1039.8
2017-01-18T08:11:19.365Z,1039.82
2017-01-18T08:12:20.125Z,1039.84
2017-01-18T08:13:20.858Z,1039.89
2017-01-18T08:14:21.607Z,1039.89
2017-01-18T08:15:22.356Z,1039.87
2017-01-18T08:16:23.095Z,1039.92
2017-01-18T08:17:23.873Z,1039.93
2017-01-18T08:18:24.610Z,1039.99
2017-01-18T08:19:25.338Z,1040
2017-01-18T08:20:26.082Z,1040.02
2017-01-18T08:21:26.812Z,1040.04
2017-01-18T08:22:27.553Z,1040.09
2017-01-18T08:23:28.310Z,1040.09
2017-01-18T08:24:29.057Z,1040.12
2017-01-18T08:25:29.832Z,1040.11
2017-01-18T08:26:30.639Z,1040.14
2017-01-18T08:27:31.374Z,1040.18
2017-01-18T08:28:32.141Z,1040.25
2017-01-18T08:29:32.902Z,1040.23
2017-01-18T08:30:33.657Z,1040.22
2017-01-18T08:31:34.410Z,1040.23
2017-01-18T08:32:35.154Z,1040.28
2017-01-18T08:33:35.906Z,1040.29
2017-01-18T08:34:36.645Z,1040.28
2017-01-18T08:35:37.387Z,1040.35
2017-01-18T08:36:38.124Z,1040.31
2017-01-18T08:37:38.872Z,1040.4
2017-01-18T08:38:39.620Z,1040.37
2017-01-18T08:39:40.374Z,1040.36
2017-01-18T08:40:41.124Z,1040.37
2017-01-18T08:41:41.871Z,1040.38
2017-01-18T08:42:42.619Z,1040.36
2017-01-18T08:43:43.344Z,1040.39
2017-01-18T08:44:44.088Z,1040.38
2017-01-18T08:45:44.852Z,1040.39
2017-01-18T08:46:45.611Z,1040.39
2017-01-18T08:47:46.359Z,1040.38
2017-01-18T08:48:47.081Z,1040.38
2017-01-18T08:49:47.858Z,1040.39
2017-01-18T08:50:48.587Z,1040.43
2017-01-18T08:51:49.346Z,1040.46
2017-01-18T08:52:50.125Z,1040.44
2017-01-18T08:53:50.864Z,1040.47
2017-01-18T08:54:51.599Z,1040.52
2017-01-18T08:55:52.321Z,1040.49
2017-01-18T08:56:53.078Z,1040.59
2017-01-18T08:57:53.860Z,1040.59
2017-01-18T08:58:54.617Z,1040.58
2017-01-18T08:59:55.367Z,1040.6
2017-01-18T09:00:56.126Z,1040.63
2017-01-18T09:01:56.893Z,1040.67
2017-01-18T09:02:57.669Z,1040.67
2017-01-18T09:03:58.411Z,1040.73
2017-01-18T09:04:59.181Z,1040.7
2017-01-18T09:05:59.935Z,1040.71
2017-01-18T09:07:00.730Z,1040.74
2017-01-18T09:08:01.506Z,1040.72
2017-01-18T09:09:02.253Z,1040.71
2017-01-18T09:10:02.983Z,1040.69
2017-01-18T09:11:03.725Z,1040.65
2017-01-18T09:12:04.515Z,1040.68
2017-01-18T09:13:05.276Z,1040.68
2017-01-18T09:14:06.019Z,1040.63
2017-01-18T09:15:06.771Z,1040.62
2017-01-18T09:16:07.504Z,1040.63
2017-01-18T09:17:08.253Z,1040.6
2017-01-18T09:18:08.994Z,1040.6
2017-01-18T09:19:09.737Z,1040.61
2017-01-18T09:20:10.483Z,1040.61
2017-01-18T09:21:11.221Z,1040.61
2017-01-18T09:22:11.975Z,1040.62
2017-01-18T09:23:12.763Z,1040.56
2017-01-18T09:24:13.504Z,1040.61
2017-01-18T09:25:14.236Z,1040.59
2017-01-18T09:26:14.976Z,1040.57
2017-01-18T09:27:15.767Z,1040.58
2017-01-18T09:28:16.472Z,1040.56
2017-01-18T09:29:17.212Z,1040.54
2017-01-18T09:30:17.947Z,1040.56
2017-01-18T09:31:18.726Z,1040.56
2017-01-18T09:32:19.475Z,1040.57
2017-01-18T09:33:20.229Z,1040.59
2017-01-18T09:34:20.999Z,1040.6
2017-01-18T09:35:21.762Z,1040.61
2017-01-18T09:36:22.567Z,1040.62
2017-01-18T09:37:23.305Z,1040.64
2017-01-18T09:38:24.052Z,1040.6
2017-01-18T09:39:24.793Z,1040.66
2017-01-18T09:40:25.538Z,1040.65
2017-01-18T09:41:26.281Z,1040.66
2017-01-18T09:42:27.023Z,1040.69
2017-01-18T09:43:27.768Z,1040.68
2017-01-18T09:44:28.544Z,1040.68
2017-01-18T09:45:29.287Z,1040.59
2017-01-18T09:46:30.025Z,1040.66
2017-01-18T09:47:30.789Z,1040.69
2017-01-18T09:48:31.574Z,1040.67
2017-01-18T09:49:32.365Z,1040.67
2017-01-18T09:50:33.116Z,1040.74
2017-01-18T09:51:33.855Z,1040.77
2017-01-18T09:52:34.593Z,1040.78
2017-01-18T09:53:35.366Z,1040.8
2017-01-18T09:54:36.126Z,1040.8
2017-01-18T09:55:36.874Z,1040.77
2017-01-18T09:56:37.701Z,1040.77
2017-01-18T09:57:38.463Z,1040.76
2017-01-18T09:58:39.269Z,1040.72
2017-01-18T09:59:40.080Z,1040.72
2017-01-18T10:00:40.934Z,1040.72
2017-01-18T10:01:41.754Z,1040.71
2017-01-18T10:02:42.535Z,1040.69
2017-01-18T10:03:43.648Z,1040.73
2017-01-18T10:04:44.629Z,1040.71
2017-01-18T10:05:45.386Z,1040.74
2017-01-18T10:06:46.138Z,1040.71
2017-01-18T10:07:46.898Z,1040.76
2017-01-18T10:08:47.656Z,1040.75
2017-01-18T10:09:48.415Z,1040.71
2017-01-18T10:10:49.181Z,1040.72
2017-01-18T10:11:49.945Z,1040.73
2017-01-18T10:12:50.682Z,1040.71
2017-01-18T10:13:51.448Z,1040.71
2017-01-18T10:14:52.204Z,1040.7
2017-01-18T10:15:52.957Z,1040.73
2017-01-18T10:16:53.708Z,1040.68
2017-01-18T10:17:54.458Z,1040.65
2017-01-18T10:18:55.202Z,1040.64
2017-01-18T10:19:55.941Z,1040.63
2017-01-18T10:20:56.720Z,1040.64
2017-01-18T10:21:57.507Z,1040.64
2017-01-18T10:22:58.251Z,1040.62
2017-01-18T10:23:59.012Z,1040.69
2017-01-18T10:24:59.761Z,1040.65
2017-01-18T10:26:00.512Z,1040.65
2017-01-18T10:27:01.252Z,1040.67
2017-01-18T10:28:01.980Z,1040.65
2017-01-18T10:29:02.718Z,1040.71
2017-01-18T10:30:03.449Z,1040.7
2017-01-18T10:31:04.201Z,1040.68
2017-01-18T10:32:05.050Z,1040.66
2017-01-18T10:33:05.786Z,1040.65
2017-01-18T10:34:06.528Z,1040.61
2017-01-18T10:35:07.256Z,1040.61
2017-01-18T10:36:07.991Z,1040.61
2017-01-18T10:37:08.720Z,1040.63
2017-01-18T10:38:09.468Z,1040.56
2017-01-18T10:39:10.231Z,1040.51
2017-01-18T10:40:10.976Z,1040.52
2017-01-18T10:41:11.710Z,1040.54
2017-01-18T10:42:12.489Z,1040.49
2017-01-18T10:43:13.234Z,1040.51
2017-01-18T10:44:13.998Z,1040.46
2017-01-18T10:45:14.752Z,1040.49
2017-01-18T10:46:15.512Z,1040.47
2017-01-18T10:47:16.278Z,1040.47
2017-01-18T10:48:17.012Z,1040.46
2017-01-18T10:49:17.773Z,1040.49
2017-01-18T10:50:18.514Z,1040.49
2017-01-18T10:51:19.256Z,1040.49
2017-01-18T10:52:20.011Z,1040.51
2017-01-18T10:53:20.738Z,1040.5
2017-01-18T10:54:21.482Z,1040.52
2017-01-18T10:55:22.247Z,1040.51
2017-01-18T10:56:22.983Z,1040.55
2017-01-18T10:57:23.716Z,1040.54
2017-01-18T10:58:24.445Z,1040.55
2017-01-18T10:59:25.194Z,1040.51
2017-01-18T11:00:26.070Z,1040.51
2017-01-18T11:01:26.847Z,1040.5
2017-01-18T11:02:27.621Z,1040.47
2017-01-18T11:03:28.376Z,1040.5
2017-01-18T11:04:29.106Z,1040.5
2017-01-18T11:05:29.857Z,1040.46
2017-01-18T11:06:30.603Z,1040.48
2017-01-18T11:07:31.352Z,1040.46
2017-01-18T11:08:32.095Z,1040.42
2017-01-18T11:09:32.833Z,1040.42
2017-01-18T11:10:33.595Z,1040.42
2017-01-18T11:11:34.418Z,1040.42
2017-01-18T11:12:35.167Z,1040.43
2017-01-18T11:13:35.921Z,1040.43
2017-01-18T11:14:36.657Z,1040.42
2017-01-18T11:15:37.397Z,1040.4
2017-01-18T11:16:38.145Z,1040.39
2017-01-18T11:17:38.887Z,1040.43
2017-01-18T11:18:39.644Z,1040.4
2017-01-18T11:19:40.396Z,1040.41
2017-01-18T11:20:41.139Z,1040.46
2017-01-18T11:21:41.883Z,1040.42
2017-01-18T11:22:42.616Z,1040.45
2017-01-18T11:23:43.372Z,1040.46
2017-01-18T11:24:44.111Z,1040.44
2017-01-18T11:25:44.858Z,1040.47
2017-01-18T11:26:45.589Z,1040.46
2017-01-18T11:27:46.389Z,1040.53
2017-01-18T11:28:47.110Z,1040.5
2017-01-18T11:29:47.842Z,1040.51
2017-01-18T11:30:48.612Z,1040.5
2017-01-18T11:31:49.345Z,1040.49
2017-01-18T11:32:50.122Z,1040.43
2017-01-18T11:33:50.858Z,1040.45
2017-01-18T11:34:51.617Z,1040.42
2017-01-18T11:35:52.361Z,1040.46
2017-01-18T11:36:53.130Z,1040.44
2017-01-18T11:37:53.862Z,1040.44
2017-01-18T11:38:54.664Z,1040.37
2017-01-18T11:39:55.423Z,1040.38
2017-01-18T11:40:56.182Z,1040.38
2017-01-18T11:41:56.942Z,1040.41
2017-01-18T11:42:57.686Z,1040.4
2017-01-18T11:43:58.454Z,1040.37
2017-01-18T11:44:59.221Z,1040.31
2017-01-18T11:45:59.955Z,1040.32
2017-01-18T11:47:00.720Z,1040.29
2017-01-18T11:48:01.449Z,1040.32
2017-01-18T11:49:02.210Z,1040.26
2017-01-18T11:50:02.973Z,1040.28
2017-01-18T11:51:03.712Z,1040.28
2017-01-18T11:52:04.454Z,1040.29
2017-01-18T11:53:05.205Z,1040.25
2017-01-18T11:54:05.960Z,1040.3
2017-01-18T11:55:06.710Z,1040.29
2017-01-18T11:56:07.446Z,1040.29
2017-01-18T11:57:08.176Z,1040.23
2017-01-18T11:58:08.930Z,1040.25
2017-01-18T11:59:09.670Z,1040.24
2017-01-18T12:00:10.426Z,1040.22
2017-01-18T12:01:11.173Z,1040.19
2017-01-18T12:02:12.055Z,1040.19
2017-01-18T12:03:12.791Z,1040.2
2017-01-18T12:04:13.524Z,1040.16
2017-01-18T12:05:14.258Z,1040.18
2017-01-18T12:06:14.997Z,1040.18
2017-01-18T12:07:15.743Z,1040.15
2017-01-18T12:08:16.500Z,1040.17
2017-01-18T12:09:17.284Z,1040.12
2017-01-18T12:10:18.053Z,1040.13
2017-01-18T12:11:18.809Z,1040.14
2017-01-18T12:12:19.526Z,1040.16
2017-01-18T12:13:20.295Z,1040.17
2017-01-18T12:14:21.069Z,1040.2
2017-01-18T12:15:21.819Z,1040.13
2017-01-18T12:16:22.569Z,1040.15
2017-01-18T12:17:23.310Z,1040.13
2017-01-18T12:18:24.055Z,1040.15
2017-01-18T12:19:24.801Z,1040.15
2017-01-18T12:20:25.549Z,1040.17
2017-01-18T12:21:26.325Z,1040.16
2017-01-18T12:22:27.078Z,1040.13